Time;durP1;ratioP1;P1;durP2;ratioP2;P2;SDS_P1;SDS_P2;PMS_P1;PMS_P2;Temp;Humidity;BMP_temperature;BMP_pressure;BME280_temperature;BME280_humidity;BME280_pressure;Samples;Min_cycle;Max_cycle;Signal;HPM_P1;HPM_P2
2023/07/04 00:00:12;;;;;;;;;;;;;;;18.07;100.00;95205.06;5115334;28;1219;-52
2023/07/04 00:02:39;;;;;;;;;;;;;;;18.19;100.00;95204.44;5115330;28;964;-52
2023/07/04 00:05:05;;;;;;;;;;;;;;;18.19;100.00;95213.41;5115277;28;1046;-52
2023/07/04 00:07:34;;;;;;;;;;;;;;;18.20;100.00;95211.53;5114970;28;1083;-52
2023/07/04 00:10:00;;;;;;;;;;;;;;;18.24;100.00;95208.19;5115106;28;984;-52
2023/07/04 00:12:26;;;;;;;;;;;;;;;17.96;100.00;95208.38;5114800;28;1710;-52
2023/07/04 00:14:52;;;;;;;;;;;;;;;17.87;100.00;95223.97;5113734;28;1122;-52
2023/07/04 00:17:18;;;;;;;;;;;;;;;17.93;100.00;95222.34;5114564;28;2060;-52
2023/07/04 00:19:47;;;;;;;;;;;;;;;17.88;100.00;95214.81;5114952;28;964;-52
2023/07/04 00:22:13;;;;;;;;;;;;;;;17.74;100.00;95213.94;5114651;28;1118;-52
2023/07/04 00:24:40;;;;;;;;;;;;;;;17.75;100.00;95217.47;5114789;28;1002;-52
2023/07/04 00:27:06;;;;;;;;;;;;;;;17.84;100.00;95221.69;5114705;28;1048;-52
2023/07/04 00:29:32;;;;;;;;;;;;;;;17.85;100.00;95222.50;5114859;28;973;-52
2023/07/04 00:32:02;;;;;;;;;;;;;;;17.82;100.00;95217.47;5114612;28;1059;-51
2023/07/04 00:34:28;;;;;;;;;;;;;;;17.76;100.00;95208.31;5114651;28;1063;-52
2023/07/04 00:36:59;;;;;;;;;;;;;;;17.89;100.00;95218.34;5114557;28;1913;-52
2023/07/04 00:39:26;;;;;;;;;;;;;;;17.99;100.00;95213.38;5114506;28;1001;-52
2023/07/04 00:41:52;;;;;;;;;;;;;;;17.84;100.00;95213.56;5114655;28;1026;-52
2023/07/04 00:44:23;;;;;;;;;;;;;;;17.73;100.00;95214.94;5114573;28;995;-52
2023/07/04 00:46:54;;;;;;;;;;;;;;;17.71;100.00;95206.22;5114191;28;1066;-51
2023/07/04 00:49:26;;;;;;;;;;;;;;;17.75;100.00;95201.22;5114207;28;1028;-51
2023/07/04 00:51:58;;;;;;;;;;;;;;;17.71;100.00;95206.22;5114184;28;1055;-51
2023/07/04 00:54:26;;;;;;;;;;;;;;;17.54;100.00;95210.31;5114398;28;972;-52
2023/07/04 00:56:58;;;;;;;;;;;;;;;17.52;100.00;95207.81;5114229;28;1910;-52
2023/07/04 00:59:25;;;;;;;;;;;;;;;17.48;100.00;95211.97;5114216;28;1042;-51
2023/07/04 01:01:53;;;;;;;;;;;;;;;17.53;100.00;95204.09;5114278;28;968;-52
2023/07/04 01:04:20;;;;;;;;;;;;;;;17.63;100.00;95206.41;5114107;28;1046;-52
2023/07/04 01:06:52;;;;;;;;;;;;;;;17.69;100.00;95218.28;5114307;28;1051;-52
2023/07/04 01:09:20;;;;;;;;;;;;;;;17.68;100.00;95216.59;5114025;28;967;-52
2023/07/04 01:11:48;;;;;;;;;;;;;;;17.59;100.00;95209.72;5113918;28;1679;-52
2023/07/04 01:14:17;;;;;;;;;;;;;;;17.61;100.00;95207.66;5114025;28;1203;-52
2023/07/04 01:16:43;;;;;;;;;;;;;;;17.62;100.00;95217.41;5113790;28;1956;-52
2023/07/04 01:19:10;;;;;;;;;;;;;;;17.66;100.00;95213.25;5113943;28;1108;-52
2023/07/04 01:21:36;;;;;;;;;;;;;;;17.49;100.00;95213.66;5114212;28;1010;-52
2023/07/04 01:24:18;;;;;;;;;;;;;;;17.38;100.00;95206.13;5114084;28;987;-51
2023/07/04 01:26:46;;;;;;;;;;;;;;;17.61;100.00;95207.66;5113983;28;1906;-51
2023/07/04 01:29:13;;;;;;;;;;;;;;;17.67;100.00;95220.34;5113902;28;1051;-52
2023/07/04 01:31:43;;;;;;;;;;;;;;;17.66;100.00;95208.72;5113827;28;1047;-51
2023/07/04 01:34:10;;;;;;;;;;;;;;;17.51;100.00;95203.47;5113819;28;1133;-51
2023/07/04 01:36:38;;;;;;;;;;;;;;;17.40;100.00;95208.63;5113996;28;976;-51
2023/07/04 01:39:05;;;;;;;;;;;;;;;17.37;100.00;95213.38;5113946;28;976;-52
2023/07/04 01:41:32;;;;;;;;;;;;;;;17.36;100.00;95211.72;5113744;28;960;-52
2023/07/04 01:44:00;;;;;;;;;;;;;;;17.45;100.00;95214.25;5113785;28;1034;-52
2023/07/04 01:46:26;;;;;;;;;;;;;;;17.45;100.00;95222.34;5113499;28;1909;-51
2023/07/04 01:48:52;;;;;;;;;;;;;;;17.26;100.00;95224.75;5113949;28;960;-52
2023/07/04 01:51:26;;;;;;;;;;;;;;;17.22;100.00;95223.50;5113790;28;1042;-52
2023/07/04 01:53:52;;;;;;;;;;;;;;;17.28;100.00;95228.13;5113831;28;1046;-51
2023/07/04 01:56:19;;;;;;;;;;;;;;;17.26;100.00;95229.34;5113504;28;1618;-51
2023/07/04 01:58:45;;;;;;;;;;;;;;;17.21;100.00;95224.53;5114967;28;1012;-52
2023/07/04 02:01:11;;;;;;;;;;;;;;;17.30;100.00;95226.03;5117458;28;1058;-51
2023/07/04 02:03:37;;;;;;;;;;;;;;;17.47;100.00;95222.97;5117751;28;1067;-52
2023/07/04 02:06:03;;;;;;;;;;;;;;;17.56;100.00;95229.88;5117627;27;1989;-52
2023/07/04 02:08:29;;;;;;;;;;;;;;;17.56;100.00;95236.09;5117519;28;1036;-52
2023/07/04 02:10:55;;;;;;;;;;;;;;;17.45;100.00;95233.97;5117229;28;1420;-52
2023/07/04 02:13:21;;;;;;;;;;;;;;;17.35;100.00;95233.53;5117244;28;1043;-52
2023/07/04 02:15:48;;;;;;;;;;;;;;;17.26;100.00;95234.75;5117058;28;1218;-51
2023/07/04 02:18:14;;;;;;;;;;;;;;;17.29;100.00;95228.94;5117355;28;984;-52
2023/07/04 02:20:40;;;;;;;;;;;;;;;17.55;100.00;95226.34;5117430;28;1052;-51
2023/07/04 02:23:06;;;;;;;;;;;;;;;17.48;100.00;95227.38;5117296;28;1014;-52
2023/07/04 02:25:32;;;;;;;;;;;;;;;17.32;100.00;95223.97;5117099;28;1028;-52
2023/07/04 02:27:58;;;;;;;;;;;;;;;17.36;100.00;95240.63;5116993;28;1980;-51
2023/07/04 02:30:25;;;;;;;;;;;;;;;17.42;100.00;95229.00;5116837;28;1962;-52
2023/07/04 02:32:51;;;;;;;;;;;;;;;17.42;100.00;95233.59;5117196;28;976;-52
2023/07/04 02:35:16;;;;;;;;;;;;;;;17.36;100.00;95230.63;5117004;28;1112;-51
2023/07/04 02:37:43;;;;;;;;;;;;;;;17.17;100.00;95236.78;5116845;28;1060;-51
2023/07/04 02:40:09;;;;;;;;;;;;;;;16.92;100.00;95231.88;5116725;28;1020;-52
2023/07/04 02:42:35;;;;;;;;;;;;;;;17.06;100.00;95230.06;5116692;28;1011;-52
2023/07/04 02:45:01;;;;;;;;;;;;;;;17.04;100.00;95234.03;5116642;28;987;-51
2023/07/04 02:47:27;;;;;;;;;;;;;;;16.97;100.00;95232.09;5116465;28;1918;-52
2023/07/04 02:49:53;;;;;;;;;;;;;;;16.84;100.00;95236.59;5116579;28;1130;-51
2023/07/04 02:52:20;;;;;;;;;;;;;;;16.54;100.00;95234.91;5116733;28;991;-52
2023/07/04 02:54:46;;;;;;;;;;;;;;;16.56;100.00;95232.84;5116664;28;971;-52
2023/07/04 02:57:15;;;;;;;;;;;;;;;16.65;100.00;95232.69;5116284;28;1116;-52
2023/07/04 02:59:41;;;;;;;;;;;;;;;16.81;100.00;95226.13;5116350;28;941;-51
2023/07/04 03:02:07;;;;;;;;;;;;;;;16.84;100.00;95234.72;5116274;28;1118;-51
2023/07/04 03:04:33;;;;;;;;;;;;;;;16.83;100.00;95233.06;5116168;28;1012;-52
2023/07/04 03:06:59;;;;;;;;;;;;;;;16.84;100.00;95226.63;5116346;28;1985;-52
2023/07/04 03:09:25;;;;;;;;;;;;;;;16.57;100.00;95226.41;5115740;28;1008;-51
2023/07/04 03:11:51;;;;;;;;;;;;;;;16.39;100.00;95226.06;5116228;28;1670;-51
2023/07/04 03:14:17;;;;;;;;;;;;;;;16.37;100.00;95228.09;5116061;28;1195;-51
2023/07/04 03:16:43;;;;;;;;;;;;;;;16.55;100.00;95231.16;5116074;28;1130;-51
2023/07/04 03:19:09;;;;;;;;;;;;;;;16.71;100.00;95229.19;5116053;28;1101;-51
2023/07/04 03:21:35;;;;;;;;;;;;;;;16.83;100.00;95226.81;5116188;28;987;-51
2023/07/04 03:24:01;;;;;;;;;;;;;;;16.96;100.00;95225.03;5115923;28;1079;-51
2023/07/04 03:26:27;;;;;;;;;;;;;;;16.85;100.00;95216.66;5115799;28;2000;-52
2023/07/04 03:28:53;;;;;;;;;;;;;;;16.53;100.00;95230.53;5115884;28;964;-52
2023/07/04 03:31:19;;;;;;;;;;;;;;;16.59;100.00;95226.22;5116040;28;1109;-52
2023/07/04 03:33:46;;;;;;;;;;;;;;;16.85;100.00;95231.00;5115764;28;1011;-51
2023/07/04 03:36:12;;;;;;;;;;;;;;;16.91;100.00;95232.91;5115577;28;1067;-52
2023/07/04 03:38:38;;;;;;;;;;;;;;;17.00;100.00;95232.72;5115754;28;1054;-51
2023/07/04 03:41:03;;;;;;;;;;;;;;;17.11;100.00;95245.66;5115615;28;1090;-51
2023/07/04 03:43:30;;;;;;;;;;;;;;;17.05;100.00;95243.78;5115486;28;960;-51
2023/07/04 03:45:55;;;;;;;;;;;;;;;16.98;100.00;95239.19;5115748;28;1906;-52
2023/07/04 03:48:22;;;;;;;;;;;;;;;17.12;100.00;95244.66;5115548;28;1015;-51
2023/07/04 03:50:48;;;;;;;;;;;;;;;17.33;100.00;95243.72;5115507;28;1202;-51
2023/07/04 03:53:14;;;;;;;;;;;;;;;17.50;100.00;95238.81;5115503;28;983;-52
2023/07/04 03:55:40;;;;;;;;;;;;;;;17.68;100.00;95241.78;5115269;28;1533;-51
2023/07/04 03:58:06;;;;;;;;;;;;;;;17.73;100.00;95236.59;5115186;28;1055;-52
2023/07/04 04:00:32;;;;;;;;;;;;;;;17.79;100.00;95245.75;5115299;28;1064;-52
2023/07/04 04:02:58;;;;;;;;;;;;;;;17.91;100.00;95249.56;5115309;28;944;-51
2023/07/04 04:05:25;;;;;;;;;;;;;;;18.11;100.00;95246.91;5114033;28;980;-51
2023/07/04 04:07:51;;;;;;;;;;;;;;;18.20;100.00;95246.72;5115140;28;1985;-51
2023/07/04 04:10:18;;;;;;;;;;;;;;;18.14;100.00;95251.91;5114873;28;1412;-51
2023/07/04 04:12:44;;;;;;;;;;;;;;;18.26;100.00;95256.72;5114979;28;1047;-52
2023/07/04 04:15:10;;;;;;;;;;;;;;;18.48;100.00;95255.47;5114938;28;1096;-52
2023/07/04 04:17:36;;;;;;;;;;;;;;;18.71;100.00;95256.94;5115201;28;955;-52
2023/07/04 04:20:05;;;;;;;;;;;;;;;18.88;100.00;95260.91;5114885;28;1007;-51
2023/07/04 04:22:31;;;;;;;;;;;;;;;18.89;100.00;95259.88;5113960;28;1011;-52
2023/07/04 04:24:57;;;;;;;;;;;;;;;19.00;99.60;95258.38;5114794;28;979;-52
2023/07/04 04:27:26;;;;;;;;;;;;;;;19.13;98.83;95262.13;5114464;28;1905;-51
2023/07/04 04:29:53;;;;;;;;;;;;;;;19.12;99.12;95261.28;5114813;28;993;-51
2023/07/04 04:32:21;;;;;;;;;;;;;;;19.30;96.34;95255.22;5114508;28;1024;-51
2023/07/04 04:34:48;;;;;;;;;;;;;;;19.44;97.57;95261.41;5114667;28;996;-51
2023/07/04 04:37:14;;;;;;;;;;;;;;;19.60;96.31;95257.41;5114370;28;1028;-52
2023/07/04 04:39:40;;;;;;;;;;;;;;;19.83;95.21;95263.16;5114517;28;957;-52
2023/07/04 04:42:12;;;;;;;;;;;;;;;19.95;94.40;95260.59;5114429;28;1034;-52
2023/07/04 04:44:39;;;;;;;;;;;;;;;20.02;94.90;95269.53;5114684;28;1039;-51
2023/07/04 04:47:06;;;;;;;;;;;;;;;20.16;94.92;95283.03;5114213;28;1922;-51
2023/07/04 04:49:32;;;;;;;;;;;;;;;20.17;92.72;95287.44;5114198;28;1086;-51
2023/07/04 04:51:59;;;;;;;;;;;;;;;20.20;94.76;95282.38;5114312;28;1066;-51
2023/07/04 04:54:25;;;;;;;;;;;;;;;20.22;92.43;95276.72;5114212;27;1031;-52
2023/07/04 04:56:51;;;;;;;;;;;;;;;20.33;93.48;95277.91;5114078;28;1412;-52
2023/07/04 04:59:17;;;;;;;;;;;;;;;20.41;94.85;95274.94;5114066;28;991;-52
2023/07/04 05:01:45;;;;;;;;;;;;;;;20.31;95.14;95283.56;5114280;28;1023;-52
2023/07/04 05:04:11;;;;;;;;;;;;;;;20.44;95.75;95278.03;5114051;28;1095;-52
2023/07/04 05:06:37;;;;;;;;;;;;;;;20.62;93.10;95287.34;5114008;28;1933;-51
2023/07/04 05:09:04;;;;;;;;;;;;;;;20.65;92.65;95287.75;5112942;28;956;-52
2023/07/04 05:11:33;;;;;;;;;;;;;;;20.68;93.09;95281.06;5113845;28;1671;-52
2023/07/04 05:14:00;;;;;;;;;;;;;;;20.78;93.00;95281.38;5114177;28;964;-52
2023/07/04 05:16:26;;;;;;;;;;;;;;;20.77;94.32;95279.72;5113743;28;1321;-52
2023/07/04 05:18:52;;;;;;;;;;;;;;;20.82;90.60;95289.91;5113914;28;1008;-52
2023/07/04 05:21:20;;;;;;;;;;;;;;;20.89;89.71;95292.56;5113847;28;1051;-52
2023/07/04 05:23:48;;;;;;;;;;;;;;;21.15;88.58;95292.34;5113909;28;972;-52
2023/07/04 05:26:15;;;;;;;;;;;;;;;21.24;89.03;95285.53;5112523;28;1984;-51
2023/07/04 05:28:42;;;;;;;;;;;;;;;21.44;86.62;95279.13;5113805;28;1020;-52
2023/07/04 05:31:12;;;;;;;;;;;;;;;21.65;86.91;95283.28;5113822;28;1024;-52
2023/07/04 05:33:39;;;;;;;;;;;;;;;21.65;86.90;95277.84;5116825;28;1083;-52
2023/07/04 05:36:05;;;;;;;;;;;;;;;21.85;85.46;95277.56;5118087;28;1052;-52
2023/07/04 05:38:31;;;;;;;;;;;;;;;22.03;85.64;95276.75;5117809;28;1079;-51
2023/07/04 05:40:57;;;;;;;;;;;;;;;22.29;85.51;95277.44;5118174;28;1035;-52
2023/07/04 05:43:23;;;;;;;;;;;;;;;22.53;84.44;95268.28;5118000;28;1062;-52
2023/07/04 05:45:50;;;;;;;;;;;;;;;22.59;82.70;95274.69;5117757;28;1917;-51
2023/07/04 05:48:16;;;;;;;;;;;;;;;22.81;83.76;95269.53;5117725;28;1039;-51
2023/07/04 05:50:52;;;;;;;;;;;;;;;22.91;83.24;95271.69;5117768;28;1043;-52
2023/07/04 05:53:22;;;;;;;;;;;;;;;22.69;84.84;95263.22;5117592;28;1054;-52
2023/07/04 05:55:48;;;;;;;;;;;;;;;22.55;85.02;95266.16;5117792;28;1605;-51
2023/07/04 05:58:14;;;;;;;;;;;;;;;22.87;83.49;95260.41;5117689;28;1027;-52
2023/07/04 06:00:40;;;;;;;;;;;;;;;23.03;81.42;95268.97;5117629;28;1114;-52
2023/07/04 06:03:06;;;;;;;;;;;;;;;23.17;81.66;95271.25;5117474;28;1039;-52
2023/07/04 06:05:38;;;;;;;;;;;;;;;23.24;82.01;95270.28;5117382;28;956;-52
2023/07/04 06:08:04;;;;;;;;;;;;;;;23.29;81.24;95276.69;5117624;28;1983;-52
2023/07/04 06:10:30;;;;;;;;;;;;;;;23.26;80.19;95273.59;5117154;28;1396;-52
2023/07/04 06:12:56;;;;;;;;;;;;;;;23.17;80.61;95275.88;5117535;28;991;-51
2023/07/04 06:15:22;;;;;;;;;;;;;;;23.38;79.43;95269.00;5117139;28;1072;-52
2023/07/04 06:17:48;;;;;;;;;;;;;;;23.31;79.93;95271.00;5116093;28;1102;-52
2023/07/04 06:20:14;;;;;;;;;;;;;;;23.50;78.86;95266.25;5117044;28;1019;-52
2023/07/04 06:22:40;;;;;;;;;;;;;;;23.39;79.48;95271.50;5116206;28;1046;-52
2023/07/04 06:25:07;;;;;;;;;;;;;;;23.55;79.34;95275.38;5117292;28;1043;-52
2023/07/04 06:27:33;;;;;;;;;;;;;;;23.80;78.51;95284.38;5116982;28;1917;-52
2023/07/04 06:30:00;;;;;;;;;;;;;;;23.93;77.41;95284.94;5116938;28;1016;-52
2023/07/04 06:32:26;;;;;;;;;;;;;;;23.90;76.62;95287.31;5116968;28;1027;-51
2023/07/04 06:34:52;;;;;;;;;;;;;;;24.02;78.18;95285.41;5116916;28;1264;-51
2023/07/04 06:37:18;;;;;;;;;;;;;;;23.96;75.72;95272.72;5116710;28;1686;-52
2023/07/04 06:39:44;;;;;;;;;;;;;;;24.06;76.04;95280.28;5116725;28;1040;-52
2023/07/04 06:42:10;;;;;;;;;;;;;;;24.00;78.85;95278.50;5116611;28;1091;-51
2023/07/04 06:44:36;;;;;;;;;;;;;;;24.27;78.71;95279.59;5116074;28;1266;-51
2023/07/04 06:47:02;;;;;;;;;;;;;;;24.61;76.14;95279.72;5116712;28;1910;-51
2023/07/04 06:49:28;;;;;;;;;;;;;;;24.52;76.52;95276.53;5115344;28;969;-51
2023/07/04 06:51:54;;;;;;;;;;;;;;;24.48;73.94;95274.53;5116488;28;940;-52
2023/07/04 06:54:20;;;;;;;;;;;;;;;24.72;73.19;95267.06;5116667;28;971;-52
2023/07/04 06:56:47;;;;;;;;;;;;;;;24.55;74.82;95267.84;5116480;28;1338;-52
2023/07/04 06:59:13;;;;;;;;;;;;;;;24.70;74.96;95260.97;5116502;28;1036;-52
2023/07/04 07:01:39;;;;;;;;;;;;;;;24.91;74.35;95263.00;5116492;28;976;-52
2023/07/04 07:04:06;;;;;;;;;;;;;;;24.83;75.58;95257.09;5115140;28;998;-52
2023/07/04 07:06:32;;;;;;;;;;;;;;;24.91;74.60;95257.53;5116177;28;2379;-52
2023/07/04 07:08:58;;;;;;;;;;;;;;;25.12;75.81;95258.69;5116230;28;1043;-52
2023/07/04 07:11:25;;;;;;;;;;;;;;;25.03;74.28;95256.63;5116214;28;1365;-52
2023/07/04 07:13:51;;;;;;;;;;;;;;;24.91;74.07;95256.72;5116292;28;991;-52
2023/07/04 07:16:18;;;;;;;;;;;;;;;24.98;73.48;95262.00;5115802;28;1226;-51
2023/07/04 07:18:45;;;;;;;;;;;;;;;25.21;70.94;95255.50;5116068;28;1098;-52
2023/07/04 07:21:13;;;;;;;;;;;;;;;25.49;72.32;95258.16;5115862;28;1102;-51
2023/07/04 07:23:40;;;;;;;;;;;;;;;25.80;73.01;95261.31;5116177;28;1043;-52
2023/07/04 07:26:07;;;;;;;;;;;;;;;25.75;72.97;95257.69;5115776;27;1992;-52
2023/07/04 07:28:38;;;;;;;;;;;;;;;25.71;72.57;95258.19;5115697;28;1043;-52
2023/07/04 07:31:06;;;;;;;;;;;;;;;25.84;72.71;95248.75;5115775;28;1020;-52
2023/07/04 07:33:33;;;;;;;;;;;;;;;25.88;70.77;95249.91;5115633;28;968;-51
2023/07/04 07:36:00;;;;;;;;;;;;;;;25.85;71.50;95252.31;5115902;27;1044;-52
2023/07/04 07:38:26;;;;;;;;;;;;;;;26.06;69.74;95251.50;5115716;28;960;-52
2023/07/04 07:40:53;;;;;;;;;;;;;;;26.26;70.17;95248.19;5115606;28;1114;-52
2023/07/04 07:43:19;;;;;;;;;;;;;;;26.35;67.72;95242.22;5115602;28;1027;-52
2023/07/04 07:45:46;;;;;;;;;;;;;;;26.26;67.65;95239.97;5115568;28;1111;-52
2023/07/04 07:48:12;;;;;;;;;;;;;;;26.39;68.36;95237.88;5115290;28;1983;-52
2023/07/04 07:50:40;;;;;;;;;;;;;;;26.59;65.39;95235.38;5115367;28;1019;-52
2023/07/04 07:53:06;;;;;;;;;;;;;;;26.63;67.46;95241.16;5115587;28;1025;-52
2023/07/04 07:55:32;;;;;;;;;;;;;;;26.44;66.44;95244.25;5113554;28;1232;-52
2023/07/04 07:57:58;;;;;;;;;;;;;;;26.64;67.59;95240.91;5114737;28;1111;-52
2023/07/04 08:00:24;;;;;;;;;;;;;;;26.47;64.90;95240.19;5115250;28;1034;-52
2023/07/04 08:02:51;;;;;;;;;;;;;;;26.78;67.67;95243.22;5113868;28;1016;-52
2023/07/04 08:05:17;;;;;;;;;;;;;;;26.82;68.45;95247.09;5115088;28;1063;-52
2023/07/04 08:07:43;;;;;;;;;;;;;;;26.87;68.24;95238.91;5115258;28;1906;-52
2023/07/04 08:10:09;;;;;;;;;;;;;;;26.96;66.65;95237.34;5115048;28;1101;-52
2023/07/04 08:12:35;;;;;;;;;;;;;;;27.04;66.23;95234.13;5094665;28;1083;-52
2023/07/04 08:15:01;;;;;;;;;;;;;;;27.23;66.76;95239.19;5094488;28;1330;-53
2023/07/04 08:17:27;;;;;;;;;;;;;;;27.46;64.54;95238.00;5094430;28;1020;-52
2023/07/04 08:19:53;;;;;;;;;;;;;;;27.53;63.35;95235.84;5094734;28;1047;-53
2023/07/04 08:22:20;;;;;;;;;;;;;;;27.49;64.70;95231.97;5094504;28;973;-54
2023/07/04 08:24:46;;;;;;;;;;;;;;;27.37;65.98;95236.84;5094521;28;958;-55
2023/07/04 08:27:12;;;;;;;;;;;;;;;27.67;68.15;95235.38;5093066;28;1894;-54
2023/07/04 08:29:38;;;;;;;;;;;;;;;27.75;64.61;95221.09;5094285;28;934;-54
2023/07/04 08:32:05;;;;;;;;;;;;;;;27.84;64.06;95225.00;5093121;28;1039;-54
2023/07/04 08:34:32;;;;;;;;;;;;;;;28.01;64.08;95219.31;5094409;28;976;-52
2023/07/04 08:36:58;;;;;;;;;;;;;;;28.11;64.33;95213.84;5094372;28;975;-52
2023/07/04 08:39:24;;;;;;;;;;;;;;;28.09;64.16;95218.78;5094227;28;1079;-52
2023/07/04 08:42:02;;;;;;;;;;;;;;;28.22;67.63;95221.03;5094058;28;1048;-52
2023/07/04 08:44:31;;;;;;;;;;;;;;;28.18;64.42;95214.44;5093992;28;1078;-52
2023/07/04 08:46:58;;;;;;;;;;;;;;;28.16;62.96;95211.13;5093941;28;1988;-52
2023/07/04 08:49:51;;;;;;;;;;;;;;;28.14;65.00;95209.75;5103617;28;1110;-52
2023/07/04 08:52:24;;;;;;;;;;;;;;;28.09;65.37;95202.31;5090490;28;1106;-52
2023/07/04 08:54:51;;;;;;;;;;;;;;;28.20;63.31;95209.47;5114347;28;1054;-52
2023/07/04 08:57:39;;;;;;;;;;;;;;;28.16;64.55;95205.63;5113971;28;1593;-52
2023/07/04 09:00:09;;;;;;;;;;;;;;;28.41;65.90;95201.28;5114443;28;1006;-52
2023/07/04 09:02:52;;;;;;;;;;;;;;;28.55;63.85;95198.84;5114071;28;1031;-52
2023/07/04 09:05:25;;;;;;;;;;;;;;;28.41;61.58;95193.03;5114058;28;1079;-52
2023/07/04 09:08:03;;;;;;;;;;;;;;;28.31;64.40;95193.03;5113719;28;2000;-52
2023/07/04 09:10:41;;;;;;;;;;;;;;;28.44;62.53;95195.25;5113964;28;1463;-52
2023/07/04 09:13:15;;;;;;;;;;;;;;;28.49;65.57;95189.72;5114042;28;1023;-52
2023/07/04 09:20:08;;;;;;;;;;;;;;;28.41;63.90;95180.09;5111895;28;1099;-52
2023/07/04 09:22:35;;;;;;;;;;;;;;;28.33;65.43;95194.41;5113867;28;1071;-52
2023/07/04 09:25:02;;;;;;;;;;;;;;;28.44;68.49;95189.75;5112702;28;1118;-52
2023/07/04 09:27:29;;;;;;;;;;;;;;;28.53;64.51;95179.91;5113667;28;1988;-52
2023/07/04 09:29:56;;;;;;;;;;;;;;;28.38;63.95;95180.66;5113934;28;968;-52
2023/07/04 09:32:22;;;;;;;;;;;;;;;28.47;69.46;95178.19;5113762;28;956;-52
2023/07/04 09:34:50;;;;;;;;;;;;;;;28.47;65.37;95178.19;5113715;28;1094;-52
2023/07/04 09:37:20;;;;;;;;;;;;;;;28.55;63.79;95174.94;5113910;28;1052;-52
2023/07/04 09:39:56;;;;;;;;;;;;;;;28.61;64.50;95173.03;5113674;28;1032;-52
2023/07/04 09:42:24;;;;;;;;;;;;;;;28.74;62.93;95177.13;5113669;28;1083;-52
2023/07/04 09:44:53;;;;;;;;;;;;;;;28.92;60.88;95179.31;5113682;28;1043;-53
2023/07/04 09:47:27;;;;;;;;;;;;;;;29.10;64.40;95177.09;5113497;28;1897;-55
2023/07/04 09:50:13;;;;;;;;;;;;;;;28.95;62.33;95176.03;5113837;28;971;-52
2023/07/04 09:52:40;;;;;;;;;;;;;;;28.94;62.88;95170.81;5113728;28;1011;-52
2023/07/04 09:55:08;;;;;;;;;;;;;;;28.99;61.05;95168.06;5112572;28;1058;-52
2023/07/04 09:57:34;;;;;;;;;;;;;;;29.08;62.50;95160.03;5113343;28;1240;-52
2023/07/04 10:00:19;;;;;;;;;;;;;;;29.12;63.42;95161.97;5113571;28;1040;-52
2023/07/04 10:02:47;;;;;;;;;;;;;;;29.28;63.90;95165.53;5113727;28;1172;-52
2023/07/04 10:05:22;;;;;;;;;;;;;;;29.37;65.67;95163.06;5113497;28;1028;-53
2023/07/04 10:08:01;;;;;;;;;;;;;;;29.43;63.69;95161.94;5113629;28;1906;-53
2023/07/04 10:10:27;;;;;;;;;;;;;;;29.58;62.97;95159.13;5113263;28;1348;-53
2023/07/04 10:12:54;;;;;;;;;;;;;;;29.64;60.61;95162.69;5113418;28;1071;-52
2023/07/04 10:15:24;;;;;;;;;;;;;;;29.73;60.12;95151.94;5113331;28;1032;-52
2023/07/04 10:17:50;;;;;;;;;;;;;;;29.89;63.87;95144.41;5113556;28;1016;-52
2023/07/04 10:20:16;;;;;;;;;;;;;;;29.93;62.02;95149.06;5115293;28;1207;-53
2023/07/04 10:22:49;;;;;;;;;;;;;;;29.95;61.43;95148.78;5117166;28;1072;-52
2023/07/04 10:25:17;;;;;;;;;;;;;;;29.84;60.66;95138.91;5117255;28;1032;-52
2023/07/04 10:27:45;;;;;;;;;;;;;;;29.78;60.60;95141.72;5116933;28;1987;-53
2023/07/04 10:30:16;;;;;;;;;;;;;;;29.85;57.83;95144.16;5116944;28;1108;-52
2023/07/04 10:32:45;;;;;;;;;;;;;;;29.66;58.11;95130.16;5117099;28;1024;-52
2023/07/04 10:35:13;;;;;;;;;;;;;;;29.47;61.43;95138.22;5116807;28;1063;-52
2023/07/04 10:37:40;;;;;;;;;;;;;;;29.22;61.16;95127.31;5116925;28;980;-52
2023/07/04 10:40:11;;;;;;;;;;;;;;;28.96;61.40;95127.31;5117082;28;1052;-53
2023/07/04 10:42:44;;;;;;;;;;;;;;;28.70;61.88;95132.03;5116840;28;1078;-52
2023/07/04 10:45:13;;;;;;;;;;;;;;;28.53;65.71;95121.28;5116869;28;985;-53
2023/07/04 10:47:41;;;;;;;;;;;;;;;28.34;64.70;95123.72;5116752;28;1981;-53
2023/07/04 10:50:10;;;;;;;;;;;;;;;28.30;66.56;95119.88;5116616;28;1094;-54
2023/07/04 10:52:36;;;;;;;;;;;;;;;28.21;66.09;95106.69;5116795;28;1024;-53
2023/07/04 10:55:03;;;;;;;;;;;;;;;28.18;68.94;95112.72;5116539;28;1058;-53
2023/07/04 10:57:42;;;;;;;;;;;;;;;28.16;67.89;95114.13;5116135;28;1327;-54
2023/07/04 11:00:17;;;;;;;;;;;;;;;28.08;67.80;95114.63;5116531;28;1094;-53
2023/07/04 11:02:50;;;;;;;;;;;;;;;27.97;69.60;95109.13;5116520;28;957;-53
2023/07/04 11:05:22;;;;;;;;;;;;;;;27.85;71.47;95111.28;5116701;28;987;-54
2023/07/04 11:07:51;;;;;;;;;;;;;;;27.78;71.97;95106.03;5115851;27;1906;-53
2023/07/04 11:10:22;;;;;;;;;;;;;;;27.72;72.89;95106.31;5115825;28;1324;-53
2023/07/04 11:12:49;;;;;;;;;;;;;;;27.62;74.65;95105.19;5116152;28;1079;-53
2023/07/04 11:15:38;;;;;;;;;;;;;;;27.56;75.41;95108.16;5115886;28;1031;-53
2023/07/04 11:18:05;;;;;;;;;;;;;;;27.40;76.64;95099.06;5110437;28;1470;-53
2023/07/04 11:20:40;;;;;;;;;;;;;;;27.20;78.74;95088.75;5116030;28;1027;-53
2023/07/04 11:23:13;;;;;;;;;;;;;;;27.03;79.29;95087.06;5115953;28;975;-53
2023/07/04 11:25:42;;;;;;;;;;;;;;;27.01;80.61;95094.69;5115860;28;991;-53
2023/07/04 11:28:20;;;;;;;;;;;;;;;26.98;80.34;95097.19;5115929;28;1989;-53
2023/07/04 11:30:48;;;;;;;;;;;;;;;26.92;82.52;95090.84;5115496;28;1084;-53
2023/07/04 11:33:33;;;;;;;;;;;;;;;26.91;83.77;95082.88;5115732;28;1198;-53
2023/07/04 11:36:02;;;;;;;;;;;;;;;26.98;82.30;95088.94;5115637;28;992;-52
2023/07/04 11:38:29;;;;;;;;;;;;;;;27.05;80.48;95092.25;5116028;28;1201;-53
2023/07/04 11:40:55;;;;;;;;;;;;;;;27.11;83.91;95082.97;5114547;28;995;-53
2023/07/04 11:43:24;;;;;;;;;;;;;;;27.12;83.16;95078.31;5115603;28;972;-53
2023/07/04 11:45:54;;;;;;;;;;;;;;;27.12;86.10;95086.53;5115546;28;1039;-53
2023/07/04 11:48:20;;;;;;;;;;;;;;;27.09;83.85;95087.91;5115296;28;1914;-53
2023/07/04 11:50:50;;;;;;;;;;;;;;;27.10;86.88;95095.03;5115305;28;996;-53
2023/07/04 11:53:17;;;;;;;;;;;;;;;27.06;88.41;95086.50;5115457;28;1004;-53
2023/07/04 11:55:44;;;;;;;;;;;;;;;27.07;86.60;95084.59;5115323;28;1243;-53
2023/07/04 11:58:10;;;;;;;;;;;;;;;27.13;85.98;95082.69;5115255;28;1072;-53
2023/07/04 12:00:37;;;;;;;;;;;;;;;27.19;81.60;95087.13;5115264;28;968;-53
2023/07/04 12:03:17;;;;;;;;;;;;;;;27.25;81.34;95086.91;5115021;28;1019;-53
2023/07/04 12:05:50;;;;;;;;;;;;;;;27.33;81.06;95099.28;5115271;28;1050;-53
2023/07/04 12:08:17;;;;;;;;;;;;;;;27.32;79.99;95091.31;5115118;28;1985;-53
2023/07/04 12:10:43;;;;;;;;;;;;;;;27.23;78.42;95093.72;5114839;28;1444;-53
2023/07/04 12:13:09;;;;;;;;;;;;;;;27.29;78.17;95084.44;5115122;28;961;-53
2023/07/04 12:15:38;;;;;;;;;;;;;;;27.37;74.94;95089.41;5114926;28;1059;-53
2023/07/04 12:18:15;;;;;;;;;;;;;;;27.44;77.09;95090.00;5114592;28;1324;-54
2023/07/04 12:20:41;;;;;;;;;;;;;;;27.49;78.37;95083.72;5115203;28;987;-53
2023/07/04 12:23:10;;;;;;;;;;;;;;;27.55;78.31;95084.56;5114946;28;1031;-53
2023/07/04 12:25:39;;;;;;;;;;;;;;;27.56;76.43;95075.22;5114693;28;1015;-53
2023/07/04 12:28:08;;;;;;;;;;;;;;;27.54;75.10;95077.41;5114593;28;1910;-53
2023/07/04 12:30:37;;;;;;;;;;;;;;;27.43;75.02;95074.63;5114744;28;1082;-53
2023/07/04 12:33:03;;;;;;;;;;;;;;;27.41;74.54;95084.22;5114860;28;1006;-53
2023/07/04 12:35:31;;;;;;;;;;;;;;;27.43;75.96;95074.63;5114476;28;1027;-53
2023/07/04 12:37:58;;;;;;;;;;;;;;;27.54;77.75;95072.72;5114592;28;1030;-53
2023/07/04 12:40:29;;;;;;;;;;;;;;;27.65;78.81;95073.59;5114454;28;1120;-54
2023/07/04 12:42:56;;;;;;;;;;;;;;;27.71;74.63;95066.19;5113788;27;1146;-53
2023/07/04 12:45:23;;;;;;;;;;;;;;;27.65;75.77;95057.94;5114254;28;1023;-53
2023/07/04 12:47:50;;;;;;;;;;;;;;;27.62;77.16;95058.50;5114233;28;1910;-53
2023/07/04 12:50:16;;;;;;;;;;;;;;;27.68;78.03;95056.59;5114293;28;965;-53
2023/07/04 12:52:44;;;;;;;;;;;;;;;27.73;76.24;95051.06;5114121;28;1075;-53
2023/07/04 12:55:22;;;;;;;;;;;;;;;27.77;72.79;95043.94;5114643;28;1034;-53
2023/07/04 12:57:49;;;;;;;;;;;;;;;27.93;73.03;95038.53;5114027;28;1259;-53
2023/07/04 13:00:24;;;;;;;;;;;;;;;28.29;68.07;95052.28;5114061;28;1023;-53
2023/07/04 13:02:51;;;;;;;;;;;;;;;28.48;67.56;95042.34;5114079;28;1098;-53